Carmo do Rio Verde, Brazil
Current Conditions -  °F | °C
As of 1:00 PM on Thursday 30 Oct 2014 (Local Time) from SBAN Reporting Station
Broken Clouds Broken Clouds  
Wind Chill: 26°   Ceiling: 2000
Heat Index: 27°   Visibility: 6mi
Dew Point: 17°   Wind: 7mph
Humidity: 57%   Direction: 320°NW
Pressure: 30.06"   Gusts: NA
Location:  15.35°S, 49.71°W
Report Text: SBAN 301500Z 32006KT 9999 BKN020 BKN100 26/17 Q1018
Loading
Personal Weather Stations






























Interactive Weather Map
Tropical Storm Tracking
New forecast layout! Learn more

10-Day Weather Forecast

Advertisements
Track Severe Weather on mobile